Time;durP1;ratioP1;P1;durP2;ratioP2;P2;SDS_P1;SDS_P2;PMS_P1;PMS_P2;Temp;Humidity;BMP_temperature;BMP_pressure;BME280_temperature;BME280_humidity;BME280_pressure;Samples;Min_cycle;Max_cycle;Signal;HPM_P1;HPM_P2
2023/05/03 00:01:16;;;;;;;7.75;4.45;;;;;;;10.82;83.03;101091.88;5007199;28;20034;-67
2023/05/03 00:03:44;;;;;;;7.15;4.35;;;;;;;10.71;84.24;101104.28;5005940;28;20034;-66
2023/05/03 00:06:14;;;;;;;6.85;4.07;;;;;;;10.55;83.81;101091.47;5003305;28;20037;-67
2023/05/03 00:08:40;;;;;;;7.05;3.95;;;;;;;10.77;83.99;101120.06;5000348;28;20064;-67
2023/05/03 00:11:06;;;;;;;7.60;4.22;;;;;;;10.60;83.56;101079.66;4998696;28;20026;-66
2023/05/03 00:13:31;;;;;;;11.43;5.00;;;;;;;10.79;83.91;101108.13;4999740;28;20444;-67
2023/05/03 00:15:57;;;;;;;12.93;4.50;;;;;;;10.85;83.82;101107.50;4997483;28;20089;-66
2023/05/03 00:18:22;;;;;;;10.38;4.50;;;;;;;10.85;82.93;101099.75;4999420;28;20083;-67
2023/05/03 00:20:50;;;;;;;21.00;5.25;;;;;;;10.84;83.20;101090.22;4999611;28;20032;-67
2023/05/03 00:23:15;;;;;;;11.00;5.53;;;;;;;10.87;83.05;101107.59;4997757;28;20120;-70
2023/05/03 00:25:41;;;;;;;9.75;5.05;;;;;;;10.82;83.25;101102.22;4991616;28;20432;-67
2023/05/03 00:28:07;;;;;;;7.15;5.00;;;;;;;10.76;83.63;101096.75;4991769;28;20477;-66
2023/05/03 00:30:33;;;;;;;8.48;4.88;;;;;;;10.46;83.94;101054.09;4991640;28;20358;-63
2023/05/03 00:32:58;;;;;;;8.90;4.45;;;;;;;10.43;84.21;101053.06;4989928;28;20038;-66
2023/05/03 00:35:23;;;;;;;8.95;5.22;;;;;;;10.60;85.35;101108.06;4991456;28;20133;-66
2023/05/03 00:37:49;;;;;;;8.85;4.20;;;;;;;10.50;85.37;101107.66;4990649;28;20026;-66
2023/05/03 00:40:17;;;;;;;5.53;3.80;;;;;;;10.52;85.41;101105.13;4991388;28;20044;-66
2023/05/03 00:42:43;;;;;;;7.43;4.10;;;;;;;10.48;85.50;101098.94;4991513;28;20381;-64
2023/05/03 00:45:10;;;;;;;8.55;4.30;;;;;;;10.08;86.11;101037.66;4991151;28;20027;-67
2023/05/03 00:47:35;;;;;;;9.23;4.10;;;;;;;10.27;86.36;101103.91;4991370;28;20073;-65
2023/05/03 00:50:01;;;;;;;8.10;4.65;;;;;;;10.10;88.36;101103.09;4990945;28;20030;-66
2023/05/03 00:52:27;;;;;;;10.25;4.85;;;;;;;9.79;88.11;101067.16;4990946;28;20041;-66
2023/05/03 00:54:52;;;;;;;8.18;4.03;;;;;;;10.00;89.09;101111.19;4991372;28;20030;-66
2023/05/03 00:57:20;;;;;;;10.40;4.28;;;;;;;9.92;89.23;101115.06;4991321;28;20057;-66
2023/05/03 00:59:46;;;;;;;5.65;3.78;;;;;;;9.96;89.15;101105.00;4990933;28;20039;-67
2023/05/03 01:02:11;;;;;;;8.05;4.28;;;;;;;10.08;89.00;101109.88;4989895;28;20397;-66
2023/05/03 01:04:37;;;;;;;7.03;4.45;;;;;;;10.21;88.31;101113.94;4991284;28;20034;-66
2023/05/03 01:07:18;;;;;;;7.18;4.57;;;;;;;10.10;88.02;101109.97;4991156;28;20059;-66
2023/05/03 01:09:58;;;;;;;9.13;4.45;;;;;;;10.09;89.51;101108.19;4990667;28;20101;-66
2023/05/03 01:12:34;;;;;;;7.95;4.43;;;;;;;10.12;89.44;101111.81;4991105;28;20054;-68
2023/05/03 01:15:19;;;;;;;8.05;4.47;;;;;;;9.59;91.05;101081.63;4991102;28;20114;-66
2023/05/03 01:17:50;;;;;;;7.82;4.25;;;;;;;9.84;90.45;101114.69;4991267;28;20046;-66
2023/05/03 01:20:21;;;;;;;7.13;4.55;;;;;;;9.94;91.02;101106.59;4989724;28;20404;-66
2023/05/03 01:22:59;;;;;;;9.52;5.03;;;;;;;9.70;90.09;101057.28;4990651;28;20420;-66
2023/05/03 01:25:27;;;;;;;7.75;4.80;;;;;;;9.99;90.64;101106.84;4990855;28;20033;-66
2023/05/03 01:27:53;;;;;;;7.68;4.50;;;;;;;10.02;90.02;101110.47;4990913;28;20018;-66
2023/05/03 01:30:22;;;;;;;8.63;5.03;;;;;;;10.07;90.81;101109.78;4991137;28;20037;-64
2023/05/03 01:33:12;;;;;;;8.40;4.82;;;;;;;10.07;90.20;101104.63;4991141;28;20541;-66
2023/05/03 01:35:49;;;;;;;10.25;4.88;;;;;;;10.08;90.29;101109.88;4990381;28;20130;-66
2023/05/03 01:38:17;;;;;;;9.43;4.90;;;;;;;10.11;89.97;101098.84;4990951;28;20026;-66
2023/05/03 01:40:50;;;;;;;10.88;4.85;;;;;;;10.13;90.13;101090.34;4990861;28;20053;-66
2023/05/03 01:43:17;;;;;;;8.20;4.50;;;;;;;10.13;90.65;101084.28;4990557;28;20505;-65
2023/05/03 01:45:44;;;;;;;7.57;5.13;;;;;;;10.19;90.67;101088.06;4990664;28;20030;-66
2023/05/03 01:48:18;;;;;;;8.82;4.60;;;;;;;10.19;90.66;101094.91;4990799;28;20069;-66
2023/05/03 01:50:45;;;;;;;10.45;5.28;;;;;;;10.10;90.83;101086.72;4993694;28;20026;-66
2023/05/03 01:53:11;;;;;;;8.32;5.05;;;;;;;10.07;91.79;101069.41;4994077;28;20735;-66
2023/05/03 01:55:36;;;;;;;8.18;4.75;;;;;;;10.01;92.29;101056.22;4994391;28;20022;-66
2023/05/03 01:58:02;;;;;;;6.43;4.53;;;;;;;9.93;93.87;101073.00;4994234;28;20027;-65
2023/05/03 02:00:27;;;;;;;9.60;4.80;;;;;;;9.83;94.52;101066.50;4994425;28;20134;-65
2023/05/03 02:02:53;;;;;;;8.15;5.03;;;;;;;9.78;95.25;101070.56;4994249;28;20030;-66
2023/05/03 02:05:18;;;;;;;9.38;4.50;;;;;;;9.69;95.28;101063.25;4994275;28;20037;-66
2023/05/03 02:07:44;;;;;;;7.40;4.72;;;;;;;9.77;95.81;101080.00;4994257;28;20069;-66
2023/05/03 02:10:13;;;;;;;6.88;4.40;;;;;;;9.70;95.41;101080.50;4994166;28;20026;-65
2023/05/03 02:12:44;;;;;;;10.75;4.63;;;;;;;9.57;96.37;101060.03;4994057;28;20052;-65
2023/05/03 02:15:11;;;;;;;7.60;4.82;;;;;;;9.62;96.80;101076.63;4994030;28;20499;-66
2023/05/03 02:17:37;;;;;;;9.05;4.97;;;;;;;9.68;96.52;101074.34;4994026;28;20034;-66
2023/05/03 02:20:08;;;;;;;8.52;4.40;;;;;;;9.67;97.43;101062.28;4991554;28;20053;-68
2023/05/03 02:22:34;;;;;;;9.27;4.30;;;;;;;9.44;98.89;101061.13;5007925;28;20073;-66
2023/05/03 02:25:00;;;;;;;12.57;5.20;;;;;;;9.49;99.34;101072.56;4993391;28;20838;-66
2023/05/03 02:27:25;;;;;;;9.05;5.75;;;;;;;9.20;99.75;101025.56;4993742;28;20060;-66
2023/05/03 02:29:51;;;;;;;8.77;5.50;;;;;;;9.53;99.91;101059.91;4993700;28;20036;-66
2023/05/03 02:32:17;;;;;;;7.63;5.65;;;;;;;9.69;100.00;101073.56;4993845;28;20030;-63
2023/05/03 02:34:46;;;;;;;13.57;5.97;;;;;;;9.73;100.00;101075.47;4993512;28;20046;-64
2023/05/03 02:37:11;;;;;;;10.70;6.40;;;;;;;9.78;99.50;101086.94;4993986;28;20081;-66
2023/05/03 02:39:36;;;;;;;9.90;5.47;;;;;;;9.80;99.03;101081.84;4993867;28;20490;-66
2023/05/03 02:42:02;;;;;;;8.40;5.13;;;;;;;9.83;97.93;101081.97;4993513;28;20023;-66
2023/05/03 02:44:27;;;;;;;13.63;5.65;;;;;;;9.79;97.21;101068.03;4993817;28;20478;-66
2023/05/03 02:46:53;;;;;;;8.15;5.40;;;;;;;9.73;98.13;101072.88;4993147;28;20026;-66
2023/05/03 02:49:19;;;;;;;8.40;5.30;;;;;;;9.76;99.15;101085.03;4993118;28;20034;-66
2023/05/03 02:51:44;;;;;;;7.88;5.90;;;;;;;9.69;98.95;101069.31;4993448;28;20030;-66
2023/05/03 02:54:10;;;;;;;10.90;5.63;;;;;;;9.67;99.49;101086.38;4993205;28;20092;-66
2023/05/03 02:56:35;;;;;;;7.63;5.32;;;;;;;9.76;99.87;101083.38;4993023;28;20034;-66
2023/05/03 02:59:01;;;;;;;13.30;5.38;;;;;;;9.77;99.62;101079.09;4993114;28;20026;-66
2023/05/03 03:01:27;;;;;;;7.55;5.28;;;;;;;9.86;99.22;101085.59;4992757;28;20108;-67
2023/05/03 03:03:53;;;;;;;9.18;5.40;;;;;;;9.94;99.50;101085.97;4993239;28;20037;-66
2023/05/03 03:06:18;;;;;;;9.13;6.00;;;;;;;9.93;100.00;101089.38;4993278;28;20018;-66
2023/05/03 03:08:43;;;;;;;7.07;5.15;;;;;;;9.86;100.00;101088.16;4993044;28;20109;-66
2023/05/03 03:11:09;;;;;;;8.77;5.90;;;;;;;9.80;100.00;101076.69;5007030;28;20050;-65
2023/05/03 03:13:38;;;;;;;9.57;5.63;;;;;;;9.65;100.00;101089.69;4992747;28;20053;-66
2023/05/03 03:16:07;;;;;;;14.70;6.20;;;;;;;9.76;100.00;101093.69;5006423;28;20045;-66
2023/05/03 03:18:33;;;;;;;11.40;6.55;;;;;;;9.82;100.00;101088.84;4992944;28;20133;-66
2023/05/03 03:21:00;;;;;;;12.73;6.68;;;;;;;9.94;100.00;101098.00;4992990;28;20157;-66
2023/05/03 03:23:25;;;;;;;10.77;6.53;;;;;;;10.01;100.00;101097.50;4992585;28;20038;-67
2023/05/03 03:25:51;;;;;;;11.95;7.03;;;;;;;9.95;100.00;101089.44;4992724;28;20026;-66
2023/05/03 03:28:16;;;;;;;14.20;7.32;;;;;;;9.84;100.00;101097.53;4992664;28;20602;-66
2023/05/03 03:30:42;;;;;;;11.20;7.03;;;;;;;9.47;100.00;101074.16;4992678;28;20547;-65
2023/05/03 03:33:07;;;;;;;11.43;6.90;;;;;;;9.74;100.00;101105.59;4992620;28;20091;-66
2023/05/03 03:35:33;;;;;;;9.10;6.80;;;;;;;9.80;100.00;101094.72;4992455;28;20076;-66
2023/05/03 03:37:58;;;;;;;10.27;7.50;;;;;;;9.83;100.00;101088.03;5006102;28;20146;-65
2023/05/03 03:40:24;;;;;;;8.90;6.40;;;;;;;9.88;100.00;101096.88;4992219;28;20026;-66
2023/05/03 03:42:49;;;;;;;10.45;7.63;;;;;;;9.96;100.00;101102.41;4992238;28;20109;-66
2023/05/03 03:45:15;;;;;;;9.93;7.00;;;;;;;9.94;100.00;101103.16;4992441;28;20034;-66
2023/05/03 03:47:40;;;;;;;13.32;8.32;;;;;;;9.98;100.00;101098.22;4992243;28;20110;-66
2023/05/03 03:50:06;;;;;;;9.90;7.43;;;;;;;9.95;100.00;101108.38;4991967;28;20125;-66
2023/05/03 03:52:31;;;;;;;11.05;7.38;;;;;;;9.94;100.00;101113.47;4992276;28;20033;-66
2023/05/03 03:54:57;;;;;;;14.27;7.32;;;;;;;9.94;100.00;101106.59;4992177;28;20022;-67
2023/05/03 03:57:24;;;;;;;12.30;7.63;;;;;;;9.87;100.00;101100.25;4991866;28;20030;-66
2023/05/03 03:59:50;;;;;;;11.52;7.55;;;;;;;9.82;100.00;101121.47;4991884;28;20453;-66
2023/05/03 04:02:15;;;;;;;10.52;7.65;;;;;;;9.92;100.00;101100.50;4992077;28;20069;-66
2023/05/03 04:04:40;;;;;;;18.40;7.85;;;;;;;9.95;100.00;101092.03;4991950;28;20054;-65
2023/05/03 04:07:08;;;;;;;15.68;8.10;;;;;;;10.07;100.00;101100.38;4999319;28;20381;-66
2023/05/03 04:09:33;;;;;;;11.13;7.95;;;;;;;10.01;100.00;101102.66;5009015;28;20061;-66
2023/05/03 04:12:01;;;;;;;10.77;7.68;;;;;;;9.94;100.00;101096.28;5006962;28;20587;-66
2023/05/03 04:14:26;;;;;;;9.73;7.57;;;;;;;9.95;100.00;101102.34;5010863;28;20141;-66
2023/05/03 04:16:52;;;;;;;13.10;7.60;;;;;;;9.96;100.00;101128.22;5010977;28;20052;-66
2023/05/03 04:19:18;;;;;;;10.93;7.20;;;;;;;10.04;100.00;101124.34;5008954;28;20030;-65
2023/05/03 04:21:43;;;;;;;11.13;8.07;;;;;;;10.02;100.00;101114.75;5008044;28;20113;-66
2023/05/03 04:24:14;;;;;;;12.38;7.90;;;;;;;10.09;100.00;101129.69;5012485;28;20049;-66
2023/05/03 04:26:39;;;;;;;13.85;8.48;;;;;;;10.31;100.00;101154.00;5011460;28;20050;-66
2023/05/03 04:29:05;;;;;;;12.57;8.10;;;;;;;10.41;100.00;101171.72;5011250;28;20034;-68
2023/05/03 04:31:31;;;;;;;14.35;8.93;;;;;;;10.45;100.00;101183.09;5011307;28;20037;-66
2023/05/03 04:33:56;;;;;;;13.35;7.35;;;;;;;10.13;100.00;101144.53;5011051;28;20026;-66
2023/05/03 04:36:24;;;;;;;14.07;8.45;;;;;;;10.45;100.00;101225.25;5009049;28;20037;-66
2023/05/03 04:38:50;;;;;;;10.70;7.68;;;;;;;10.55;100.00;101234.34;5010823;28;20404;-66
2023/05/03 04:41:16;;;;;;;15.85;7.20;;;;;;;10.46;100.00;101234.78;5011255;28;20084;-68
2023/05/03 04:43:42;;;;;;;15.02;8.10;;;;;;;10.66;100.00;101234.88;5011042;28;20025;-66
2023/05/03 04:46:08;;;;;;;13.02;8.07;;;;;;;10.40;100.00;101224.16;5011126;28;20028;-66
2023/05/03 04:48:35;;;;;;;13.45;8.10;;;;;;;9.98;100.00;101169.53;5010640;28;20411;-65
2023/05/03 04:51:00;;;;;;;13.70;8.30;;;;;;;10.42;100.00;101217.38;5010557;28;20480;-66
2023/05/03 04:53:26;;;;;;;10.75;7.40;;;;;;;10.46;100.00;101190.91;5011030;28;20040;-66
2023/05/03 04:55:51;;;;;;;14.38;7.82;;;;;;;10.66;100.00;101206.47;5010955;28;20539;-67
2023/05/03 04:58:17;;;;;;;11.70;8.18;;;;;;;10.71;100.00;101192.09;5024953;28;20126;-66
2023/05/03 05:00:43;;;;;;;15.30;8.13;;;;;;;10.68;100.00;101182.50;5011010;28;20057;-66
2023/05/03 05:03:09;;;;;;;12.93;7.80;;;;;;;10.70;100.00;101184.28;5011001;28;20026;-66
2023/05/03 05:05:34;;;;;;;12.95;7.60;;;;;;;10.67;100.00;101188.47;5011016;28;20087;-66
2023/05/03 05:08:00;;;;;;;10.90;8.63;;;;;;;10.77;100.00;101194.09;5010757;28;20407;-66
2023/05/03 05:10:25;;;;;;;12.60;7.20;;;;;;;10.70;100.00;101184.28;5010977;28;20030;-67
2023/05/03 05:12:51;;;;;;;13.00;8.85;;;;;;;10.77;100.00;101187.22;5010975;28;20030;-66
2023/05/03 05:15:16;;;;;;;12.32;8.38;;;;;;;10.75;100.00;101181.09;5024818;28;20053;-66
2023/05/03 05:17:41;;;;;;;13.20;10.30;;;;;;;10.75;100.00;101185.38;5010899;28;20535;-68
2023/05/03 05:20:11;;;;;;;17.60;9.68;;;;;;;10.75;100.00;101194.00;5010894;28;20030;-66
2023/05/03 05:22:38;;;;;;;15.25;9.10;;;;;;;10.77;100.00;101188.94;5010244;28;20029;-66
2023/05/03 05:25:04;;;;;;;16.48;9.77;;;;;;;10.84;100.00;101204.78;5013861;28;20160;-66
2023/05/03 05:27:30;;;;;;;14.70;9.90;;;;;;;10.90;100.00;101211.06;5014251;28;20022;-66
2023/05/03 05:29:55;;;;;;;13.82;9.73;;;;;;;10.89;100.00;101204.09;5012324;28;20381;-66
2023/05/03 05:32:21;;;;;;;15.30;10.50;;;;;;;10.75;100.00;101216.38;5013958;28;20404;-65
2023/05/03 05:34:51;;;;;;;12.57;8.70;;;;;;;10.54;100.00;101201.59;5011999;28;20423;-66
2023/05/03 05:37:17;;;;;;;12.98;8.25;;;;;;;10.63;100.00;101212.38;5013714;28;20087;-66
2023/05/03 05:39:43;;;;;;;17.40;9.20;;;;;;;10.71;100.00;101220.50;5013972;28;20030;-66
2023/05/03 05:42:08;;;;;;;18.35;9.82;;;;;;;10.64;100.00;101219.31;5013687;28;20168;-66
2023/05/03 05:44:33;;;;;;;18.33;10.63;;;;;;;10.45;100.00;101175.34;5013808;28;20033;-66
2023/05/03 05:46:59;;;;;;;15.10;10.00;;;;;;;10.56;100.00;101186.19;5013323;28;20030;-66
2023/05/03 05:49:25;;;;;;;17.35;10.50;;;;;;;10.73;100.00;101202.50;5044121;28;20544;-66
2023/05/03 05:51:50;;;;;;;15.43;8.65;;;;;;;10.70;100.00;101208.41;5013301;28;20022;-63
2023/05/03 05:54:16;;;;;;;12.25;9.00;;;;;;;10.70;100.00;101225.59;5013561;28;20032;-66
2023/05/03 05:56:41;;;;;;;14.35;9.63;;;;;;;10.72;100.00;101222.28;5013949;28;20034;-63
2023/05/03 05:59:07;;;;;;;14.02;9.05;;;;;;;10.91;100.00;101254.16;5013210;28;20540;-66
2023/05/03 06:01:33;;;;;;;13.32;7.82;;;;;;;10.97;100.00;101260.50;5013453;28;20045;-66
2023/05/03 06:03:58;;;;;;;12.98;8.15;;;;;;;11.17;100.00;101256.28;5012691;28;20463;-66
2023/05/03 06:06:23;;;;;;;11.63;8.48;;;;;;;11.33;100.00;101265.63;5012360;28;20029;-66
2023/05/03 06:08:50;;;;;;;11.18;7.95;;;;;;;11.41;100.00;101254.78;5013150;28;20061;-66
2023/05/03 06:11:16;;;;;;;12.27;8.85;;;;;;;11.52;100.00;101239.75;5013585;28;20018;-66
2023/05/03 06:13:42;;;;;;;17.42;9.63;;;;;;;11.25;100.00;101198.88;5013300;28;20096;-65
2023/05/03 06:16:08;;;;;;;15.10;10.23;;;;;;;11.44;100.00;101211.84;5013529;28;20032;-65
2023/05/03 06:18:33;;;;;;;18.73;9.93;;;;;;;11.61;100.00;101237.56;5012828;28;20407;-65
2023/05/03 06:20:59;;;;;;;14.75;9.18;;;;;;;11.55;100.00;101211.44;5013370;28;20049;-64
2023/05/03 06:23:26;;;;;;;19.27;10.82;;;;;;;11.32;100.00;101167.34;5012895;28;20028;-64
2023/05/03 06:25:52;;;;;;;12.95;9.68;;;;;;;11.63;100.00;101212.69;5013044;28;20065;-65
2023/05/03 06:28:17;;;;;;;15.90;9.40;;;;;;;11.56;100.00;101208.03;5013297;28;20057;-65
2023/05/03 06:30:47;;;;;;;17.33;9.27;;;;;;;11.52;100.00;101221.66;5013279;28;20423;-65
2023/05/03 06:33:16;;;;;;;13.70;9.02;;;;;;;11.67;100.00;101230.09;5011104;28;20026;-66
2023/05/03 06:35:41;;;;;;;14.18;8.63;;;;;;;11.77;100.00;101221.91;5012109;28;20057;-66
2023/05/03 06:38:08;;;;;;;13.50;9.35;;;;;;;11.82;100.00;101216.94;5013123;28;20033;-66
2023/05/03 06:40:34;;;;;;;12.75;8.60;;;;;;;11.96;100.00;101225.34;5013467;28;20112;-66
2023/05/03 06:42:59;;;;;;;13.88;9.70;;;;;;;12.10;100.00;101251.81;5013177;28;20064;-66
2023/05/03 06:45:25;;;;;;;17.15;9.63;;;;;;;12.10;100.00;101250.13;5013057;28;20058;-66
2023/05/03 06:47:51;;;;;;;16.88;10.38;;;;;;;12.12;100.00;101245.91;5013214;28;20096;-68
2023/05/03 06:50:18;;;;;;;17.75;9.88;;;;;;;12.13;100.00;101246.78;5009999;28;20038;-66
2023/05/03 06:52:45;;;;;;;17.52;10.18;;;;;;;11.98;100.00;101190.06;5010298;28;20074;-64
2023/05/03 06:55:10;;;;;;;17.00;9.25;;;;;;;12.33;100.00;101229.50;5010394;28;20037;-66
2023/05/03 06:57:36;;;;;;;24.20;10.32;;;;;;;12.46;100.00;101217.94;5010383;28;20030;-66
2023/05/03 07:00:06;;;;;;;18.63;10.23;;;;;;;12.55;100.00;101201.94;5009917;28;20034;-67
2023/05/03 07:02:31;;;;;;;;;;;;;;;12.67;100.00;101202.38;4994346;28;20034;-66
2023/05/03 07:04:57;;;;;;;23.15;11.13;;;;;;;12.56;100.00;101193.31;5010300;28;19917;-66
2023/05/03 07:07:22;;;;;;;23.42;9.65;;;;;;;12.59;100.00;101191.72;5010215;28;20033;-67
2023/05/03 07:09:48;;;;;;;21.33;9.38;;;;;;;12.51;100.00;101168.94;5010167;28;20042;-67
2023/05/03 07:12:13;;;;;;;20.83;10.25;;;;;;;12.45;100.00;101175.63;5010191;28;20511;-66
2023/05/03 07:14:39;;;;;;;21.48;10.55;;;;;;;12.60;100.00;101203.00;5009922;28;20033;-66
2023/05/03 07:17:05;;;;;;;12.25;8.75;;;;;;;12.70;100.00;101197.34;5010008;28;20037;-66
2023/05/03 07:19:30;;;;;;;13.68;7.72;;;;;;;12.84;100.00;101174.56;5009963;28;20173;-67
2023/05/03 07:21:56;;;;;;;13.20;7.03;;;;;;;13.01;100.00;101177.81;5011920;28;20451;-66
2023/05/03 07:24:23;;;;;;;14.73;6.82;;;;;;;13.18;100.00;101185.34;5012496;28;20450;-66
2023/05/03 07:26:49;;;;;;;18.30;6.85;;;;;;;13.26;100.00;101183.94;5012965;28;20046;-66
2023/05/03 07:29:14;;;;;;;15.20;7.70;;;;;;;13.26;100.00;101160.59;5012365;28;20123;-67
2023/05/03 07:31:40;;;;;;;11.85;6.85;;;;;;;13.48;100.00;101175.25;5012357;28;20026;-64
2023/05/03 07:34:06;;;;;;;12.82;6.57;;;;;;;13.50;100.00;101170.16;5011920;28;20041;-66
2023/05/03 07:36:31;;;;;;;8.68;5.10;;;;;;;13.54;100.00;101174.59;5012361;28;20041;-66
2023/05/03 07:38:57;;;;;;;12.07;6.60;;;;;;;13.63;100.00;101180.09;5012341;28;20038;-67
2023/05/03 12:30:38;;;;;;;5.97;3.60;;;;;;;17.98;83.46;100968.94;5026614;28;20103;-83
2023/05/03 12:33:04;;;;;;;6.15;3.70;;;;;;;17.58;84.12;100893.44;5030308;28;20048;-84
2023/05/03 12:35:29;;;;;;;8.25;3.78;;;;;;;17.56;83.67;100906.50;5030934;28;20402;-84
2023/05/03 12:37:55;;;;;;;11.02;3.67;;;;;;;17.76;81.74;100938.13;5030833;28;20461;-83
2023/05/03 12:40:23;;;;;;;6.47;3.72;;;;;;;17.95;80.51;100960.19;5012867;28;20037;-83
2023/05/03 12:42:48;;;;;;;11.98;4.20;;;;;;;17.95;81.20;100975.84;5030687;28;20056;-82
2023/05/03 12:45:14;;;;;;;8.07;3.80;;;;;;;17.98;83.46;100940.19;5030650;28;20061;-82
2023/05/03 12:47:40;;;;;;;8.32;4.00;;;;;;;18.02;80.58;100949.81;5012953;28;20025;-83
2023/05/03 12:50:07;;;;;;;15.43;4.30;;;;;;;17.67;78.84;100892.72;5030407;28;20108;-83
2023/05/03 12:52:33;;;;;;;11.40;3.65;;;;;;;18.05;77.05;100947.28;5030820;28;20025;-83
2023/05/03 12:54:59;;;;;;;9.32;3.55;;;;;;;17.94;78.92;100921.88;5030740;28;20037;-82
2023/05/03 12:57:25;;;;;;;6.75;3.50;;;;;;;18.02;79.58;100931.53;5013025;28;20610;-82
2023/05/03 12:59:53;;;;;;;8.27;3.30;;;;;;;17.94;77.76;100921.88;5012651;28;20495;-83
2023/05/03 13:02:20;;;;;;;7.40;3.72;;;;;;;17.77;80.59;100881.56;5030315;28;20041;-84
2023/05/03 13:04:46;;;;;;;12.90;3.65;;;;;;;18.05;77.38;100913.31;5030773;28;20040;-84
2023/05/03 13:07:15;;;;;;;5.95;2.85;;;;;;;18.19;78.98;100914.34;5030823;28;20030;-84
2023/05/03 13:09:43;;;;;;;6.35;2.90;;;;;;;18.24;76.25;100911.81;5012807;28;20124;-84
2023/05/03 13:12:09;;;;;;;8.75;3.20;;;;;;;17.90;77.97;100839.06;5012804;28;20033;-85
2023/05/03 13:14:36;;;;;;;10.93;3.42;;;;;;;17.84;78.14;100812.00;5030753;28;20026;-84
2023/05/03 13:17:01;;;;;;;5.97;3.17;;;;;;;18.20;79.71;100874.28;5012825;28;20156;-81
2023/05/03 13:19:27;;;;;;;9.88;3.35;;;;;;;18.11;79.42;100871.59;5030558;28;20116;-81
2023/05/03 13:21:53;;;;;;;7.03;3.30;;;;;;;18.09;79.35;100857.63;5030399;28;20025;-81
2023/05/03 13:24:21;;;;;;;5.57;3.15;;;;;;;18.01;78.95;100849.69;5012812;28;20052;-82
2023/05/03 13:26:46;;;;;;;8.05;3.38;;;;;;;18.07;78.83;100856.75;5030238;28;20143;-82
2023/05/03 13:29:12;;;;;;;9.10;3.30;;;;;;;18.17;80.27;100858.59;5012506;28;20479;-82
2023/05/03 13:31:37;;;;;;;9.63;4.03;;;;;;;18.26;81.15;100855.22;5012487;28;20050;-83
2023/05/03 13:34:03;;;;;;;10.00;3.20;;;;;;;18.12;80.93;100815.84;5030346;28;20025;-82
2023/05/03 13:36:28;;;;;;;6.22;3.45;;;;;;;18.33;80.70;100841.34;5012717;28;20041;-82
2023/05/03 13:38:54;;;;;;;6.20;2.65;;;;;;;18.57;77.46;100871.22;5012424;28;20100;-82
2023/05/03 13:41:21;;;;;;;7.10;3.50;;;;;;;18.53;78.93;100854.63;5029973;28;20029;-80
2023/05/03 13:43:46;;;;;;;6.75;3.15;;;;;;;18.45;78.52;100845.81;5030201;28;20026;-80
2023/05/03 13:46:12;;;;;;;6.07;2.95;;;;;;;18.37;81.27;100813.53;5034203;28;20033;-79
2023/05/03 13:48:38;;;;;;;12.25;3.30;;;;;;;18.45;83.31;100824.91;5016286;28;20033;-80
2023/05/03 13:51:08;;;;;;;8.55;3.45;;;;;;;18.56;81.27;100822.41;5052342;28;20064;-79
2023/05/03 13:53:34;;;;;;;4.18;2.63;;;;;;;18.71;78.77;100819.94;5052018;28;20021;-81
2023/05/03 13:55:59;;;;;;;5.93;2.63;;;;;;;18.82;75.56;100814.78;5051690;28;20025;-79
2023/05/03 13:58:25;;;;;;;5.07;2.58;;;;;;;18.99;76.54;100827.16;5033438;28;20021;-79
2023/05/03 14:00:50;;;;;;;9.13;3.25;;;;;;;18.93;73.27;100828.00;5052244;28;20036;-82
2023/05/03 14:03:16;;;;;;;4.72;2.50;;;;;;;18.24;69.55;100744.53;5051843;28;20056;-81
2023/05/03 14:05:41;;;;;;;5.30;2.50;;;;;;;18.53;71.89;100811.91;5016371;28;20479;-80
2023/05/03 14:08:07;;;;;;;5.18;2.25;;;;;;;18.14;71.82;100742.72;5050949;28;20025;-80
2023/05/03 14:10:35;;;;;;;6.22;2.55;;;;;;;18.55;69.41;100818.91;5035697;28;20127;-80
2023/05/03 14:13:02;;;;;;;15.18;4.18;;;;;;;18.55;70.29;100820.66;5052591;28;20521;-79
2023/05/03 14:15:28;;;;;;;8.90;2.75;;;;;;;18.51;71.35;100819.75;5035424;28;20659;-78
2023/05/03 14:17:53;;;;;;;12.82;3.65;;;;;;;18.36;71.58;100807.41;5035126;28;20036;-80
2023/05/03 14:20:19;;;;;;;11.00;3.42;;;;;;;18.47;72.31;100817.06;5035067;28;20202;-80
2023/05/03 14:22:45;;;;;;;9.43;3.00;;;;;;;18.25;69.22;100799.44;5052758;28;20072;-82
2023/05/03 14:25:12;;;;;;;15.18;4.38;;;;;;;18.09;69.25;100785.34;5035381;28;20029;-83
2023/05/03 14:27:37;;;;;;;19.92;5.70;;;;;;;18.15;67.09;100805.44;5034799;28;20056;-81
2023/05/03 14:30:04;;;;;;;33.70;7.75;;;;;;;18.25;68.48;100809.03;5053037;28;20077;-81
2023/05/03 14:32:31;;;;;;;29.80;6.20;;;;;;;17.91;67.47;100754.63;5052702;28;20553;-79
2023/05/03 14:34:56;;;;;;;23.38;5.38;;;;;;;17.96;63.87;100780.84;5051881;28;20024;-73
2023/05/03 14:37:22;;;;;;;23.20;5.90;;;;;;;18.18;66.19;100821.16;5051769;28;20033;-76
2023/05/03 14:39:47;;;;;;;29.42;7.60;;;;;;;18.04;65.38;100807.91;5008781;28;20052;-78
2023/05/03 14:42:13;;;;;;;11.55;4.60;;;;;;;18.15;66.17;100826.34;5052202;28;20467;-77
2023/05/03 14:44:38;;;;;;;8.82;2.72;;;;;;;18.16;67.57;100816.78;5052582;28;20559;-76
2023/05/03 14:47:05;;;;;;;9.52;2.63;;;;;;;18.06;67.18;100811.44;5051764;28;20425;-77
2023/05/03 14:49:39;;;;;;;7.15;2.10;;;;;;;18.05;68.67;100809.66;5051994;28;20487;-73
2023/05/03 14:52:05;;;;;;;15.23;3.42;;;;;;;18.08;69.48;100814.03;5051914;28;20509;-74
2023/05/03 14:54:31;;;;;;;9.50;2.50;;;;;;;17.86;68.28;100779.81;5013786;28;20047;-76
2023/05/03 14:56:56;;;;;;;12.20;3.15;;;;;;;18.08;67.15;100801.88;5051355;28;20025;-79
2023/05/03 14:59:22;;;;;;;18.42;4.88;;;;;;;18.04;66.77;100804.44;5052027;28;20028;-80
2023/05/03 15:01:47;;;;;;;20.00;4.38;;;;;;;17.98;68.56;100809.59;5016456;28;20421;-77
2023/05/03 15:04:13;;;;;;;7.25;2.85;;;;;;;17.82;66.99;100780.66;5052398;28;20025;-71
2023/05/03 15:06:39;;;;;;;11.07;2.72;;;;;;;17.97;69.52;100789.53;5052393;28;20065;-78
2023/05/03 15:09:07;;;;;;;13.10;3.65;;;;;;;17.93;68.81;100794.72;5052168;28;20036;-76
2023/05/03 15:11:32;;;;;;;24.45;5.43;;;;;;;17.86;69.10;100790.25;5052161;28;20367;-75
2023/05/03 15:14:00;;;;;;;22.02;5.70;;;;;;;17.85;69.50;100778.06;5052371;28;20043;-75
2023/05/03 15:16:25;;;;;;;5.80;2.90;;;;;;;17.90;71.70;100785.97;5052008;28;20540;-76
2023/05/03 15:18:51;;;;;;;20.38;6.53;;;;;;;17.93;71.38;100792.09;5052408;28;20029;-76
2023/05/03 15:21:18;;;;;;;19.17;4.10;;;;;;;17.83;72.20;100768.44;4984544;28;20103;-76
2023/05/03 15:23:43;;;;;;;18.73;5.38;;;;;;;17.91;71.52;100788.56;5052030;28;20028;-76
2023/05/03 15:26:09;;;;;;;18.88;4.97;;;;;;;17.92;70.55;100786.88;5052363;28;20029;-76
2023/05/03 15:28:35;;;;;;;30.10;7.53;;;;;;;17.55;71.56;100715.91;5033277;28;20137;-77
2023/05/03 15:31:01;;;;;;;25.10;6.53;;;;;;;17.98;71.44;100781.75;5052111;28;20037;-76
2023/05/03 15:33:27;;;;;;;11.50;3.88;;;;;;;17.86;72.86;100786.78;5052160;28;20079;-76
2023/05/03 15:35:53;;;;;;;25.40;5.38;;;;;;;17.83;73.07;100786.72;5051680;28;20067;-76
2023/05/03 15:38:18;;;;;;;8.00;3.42;;;;;;;17.73;72.05;100786.63;5051909;28;20106;-76
2023/05/03 15:40:44;;;;;;;11.48;3.15;;;;;;;17.67;74.31;100781.34;5051877;28;20087;-75
2023/05/03 15:43:10;;;;;;;17.55;4.97;;;;;;;17.57;74.67;100785.56;5052000;28;20546;-76
2023/05/03 15:45:35;;;;;;;10.73;3.67;;;;;;;17.48;76.14;100780.19;5052306;28;20434;-76
2023/05/03 15:48:01;;;;;;;10.95;3.78;;;;;;;17.40;76.61;100777.47;5033731;28;20115;-75
2023/05/03 15:50:26;;;;;;;20.00;4.88;;;;;;;17.36;75.24;100761.75;5051311;28;20029;-76
2023/05/03 15:52:52;;;;;;;28.88;7.22;;;;;;;17.42;77.47;100764.44;5051528;28;20084;-75
2023/05/03 15:55:18;;;;;;;22.90;4.40;;;;;;;17.37;78.67;100760.91;5051234;28;20036;-75
2023/05/03 15:57:44;;;;;;;15.65;4.43;;;;;;;17.41;76.84;100774.03;5051438;28;20538;-76
2023/05/03 16:00:11;;;;;;;27.23;6.75;;;;;;;17.42;77.80;100774.88;5051241;28;20090;-76
2023/05/03 16:02:37;;;;;;;25.40;6.80;;;;;;;17.29;78.23;100763.41;5044815;28;20091;-76
2023/05/03 16:05:02;;;;;;;13.63;3.83;;;;;;;17.14;79.33;100756.25;5051568;28;20025;-76